Time;durP1;ratioP1;P1;durP2;ratioP2;P2;SDS_P1;SDS_P2;PMS_P1;PMS_P2;Temp;Humidity;BMP_temperature;BMP_pressure;BME280_temperature;BME280_humidity;BME280_pressure;Samples;Min_cycle;Max_cycle;Signal;HPM_P1;HPM_P2
2023/01/08 00:37:30;;;;;;;;;4.75;4.00;;;;;11.31;100.00;100214.69;6114253;22;49873;-67
2023/01/08 00:39:56;;;;;;;;;5.25;3.75;;;;;11.72;100.00;100293.91;6264741;22;52368;-67
2023/01/08 00:42:21;;;;;;;;;9.75;5.75;;;;;11.80;100.00;100320.31;6266733;22;49635;-67
2023/01/08 00:44:46;;;;;;;;;5.50;4.00;;;;;12.07;100.00;100373.16;6265341;22;49688;-67
2023/01/08 00:47:13;;;;;;;;;5.00;5.00;;;;;12.08;100.00;100337.22;6261136;22;49859;-67
2023/01/08 00:49:39;;;;;;;;;4.00;4.00;;;;;11.65;100.00;100269.28;6262892;22;49679;-79
2023/01/08 00:52:05;;;;;;;;;3.50;3.50;;;;;11.38;100.00;100242.75;6259481;22;49703;-77
2023/01/08 00:54:30;;;;;;;;;3.25;2.00;;;;;12.04;100.00;100334.53;6258090;22;49767;-68
2023/01/08 00:56:55;;;;;;;;;8.00;6.00;;;;;11.91;100.00;100293.22;6276446;22;50217;-68
2023/01/08 00:59:22;;;;;;;;;4.00;3.75;;;;;11.61;100.00;100228.09;6261673;22;50357;-68
2023/01/08 01:01:48;;;;;;;;;5.00;4.50;;;;;12.10;100.00;100311.78;6263787;22;49793;-71
2023/01/08 01:04:13;;;;;;;;;5.75;5.75;;;;;11.79;100.00;100247.50;6263912;22;49687;-70
2023/01/08 01:06:40;;;;;;;;;4.25;4.25;;;;;11.92;100.00;100302.00;6262882;22;49944;-70
2023/01/08 01:09:06;;;;;;;;;5.00;4.50;;;;;12.04;100.00;100310.84;6256255;22;50578;-70
2023/01/08 01:11:31;;;;;;;;;3.75;3.75;;;;;11.88;100.00;100281.81;6265384;22;50227;-68
2023/01/08 01:13:57;;;;;;;;;4.00;3.00;;;;;11.36;100.00;100195.44;6266503;22;49842;-68
2023/01/08 01:16:23;;;;;;;;;4.25;3.75;;;;;11.72;100.00;100265.84;6266606;22;49520;-70
2023/01/08 01:18:48;;;;;;;;;6.50;4.75;;;;;11.91;100.00;100289.72;6266205;22;51066;-68
2023/01/08 01:21:34;;;;;;;;;3.50;2.75;;;;;11.93;100.00;100288.84;6265874;22;49608;-67
2023/01/08 01:24:03;;;;;;;;;7.75;6.50;;;;;11.66;100.00;100243.88;6264806;22;49775;-69
2023/01/08 01:26:29;;;;;;;;;11.00;5.75;;;;;11.40;100.00;100213.03;6266943;22;49769;-68
2023/01/08 01:28:56;;;;;;;;;3.75;3.75;;;;;11.47;100.00;100216.56;6266341;22;50320;-68
2023/01/08 01:31:23;;;;;;;;;6.00;4.75;;;;;11.80;100.00;100268.59;6264642;22;49846;-68
2023/01/08 01:33:49;;;;;;;;;4.75;4.50;;;;;11.97;100.00;100327.47;6263821;22;49916;-70
2023/01/08 01:36:16;;;;;;;;;5.75;4.25;;;;;11.76;100.00;100266.75;6266090;22;50066;-69
2023/01/08 01:38:43;;;;;;;;;3.00;3.00;;;;;12.00;100.00;100314.34;6259398;22;50875;-68
2023/01/08 01:41:25;;;;;;;;;2.00;2.00;;;;;11.79;100.00;100279.94;6264325;22;49718;-67
2023/01/08 01:43:51;;;;;;;;;5.50;5.50;;;;;11.84;100.00;100288.78;6265890;22;49963;-68
2023/01/08 01:46:27;;;;;;;;;3.00;3.00;;;;;12.03;100.00;100301.19;6266378;22;50078;-68
2023/01/08 01:48:56;;;;;;;;;4.25;3.50;;;;;12.06;100.00;100317.88;6265767;22;51098;-68
2023/01/08 01:51:28;;;;;;;;;5.25;5.25;;;;;11.81;100.00;100287.88;6262219;22;49739;-72
2023/01/08 01:53:53;;;;;;;;;6.50;3.25;;;;;11.70;100.00;100258.84;6261747;22;49846;-68
2023/01/08 01:56:19;;;;;;;;;4.50;3.75;;;;;10.39;100.00;100082.47;6266835;22;49916;-70
2023/01/08 01:58:45;;;;;;;;;3.00;3.00;;;;;12.04;100.00;100331.03;6266139;22;49912;-71
2023/01/08 02:01:10;;;;;;;;;1.50;0.25;;;;;11.46;100.00;100243.72;6266127;22;49568;-68
2023/01/08 02:03:38;;;;;;;;;5.00;4.00;;;;;10.73;100.00;100151.97;6266300;22;49716;-70
2023/01/08 02:06:41;;;;;;;;;1.00;1.00;;;;;11.95;100.00;100331.81;6268546;22;49594;-68
2023/01/08 02:09:25;;;;;;;;;3.00;3.00;;;;;11.88;100.00;100330.03;6258909;22;50684;-67
2023/01/08 02:12:17;;;;;;;;;3.00;3.00;;;;;11.86;100.00;100334.38;6265418;22;49777;-68
2023/01/08 02:15:02;;;;;;;;;4.00;3.00;;;;;11.85;100.00;100327.34;6273380;22;49733;-67
2023/01/08 02:17:46;;;;;;;;;2.00;2.00;;;;;11.18;100.00;100222.44;6273275;22;49190;-68
2023/01/08 02:20:26;;;;;;;;;5.50;2.50;;;;;11.58;100.00;100291.16;6261344;22;50047;-69
2023/01/08 02:23:16;;;;;;;;;5.50;4.00;;;;;11.75;100.00;100334.25;6264605;22;49812;-67
2023/01/08 02:25:42;;;;;;;;;5.25;4.50;;;;;11.75;100.00;100326.34;6261995;22;49905;-67
2023/01/08 02:28:13;;;;;;;;;6.00;4.00;;;;;11.55;100.00;100322.66;6265932;22;49544;-68
2023/01/08 08:23:55;;;;;;;;;0.00;0.00;;;;;8.57;100.00;99961.22;6204971;22;49528;-72
2023/01/08 08:26:21;;;;;;;;;1.00;1.00;;;;;9.69;100.00;100153.25;6207225;22;49755;-70
2023/01/08 08:28:46;;;;;;;;;0.75;0.75;;;;;9.64;100.00;100140.91;6206053;22;49527;-70
2023/01/08 08:31:12;;;;;;;;;0.50;0.50;;;;;9.56;100.00;100116.38;6205049;22;49682;-70
2023/01/08 08:33:37;;;;;;;;;0.00;0.00;;;;;9.30;100.00;100074.06;6205260;22;49871;-71
2023/01/08 08:36:03;;;;;;;;;1.00;1.00;;;;;8.97;100.00;100020.31;6204362;22;49754;-69
2023/01/08 08:38:28;;;;;;;;;2.25;1.00;;;;;9.36;100.00;100074.13;6204654;22;49853;-68
2023/01/08 08:40:53;;;;;;;;;1.00;0.50;;;;;9.80;100.00;100149.91;6203542;22;50851;-68
2023/01/08 08:43:19;;;;;;;;;0.00;0.00;;;;;9.28;100.00;100054.84;6204534;22;49936;-71
2023/01/08 08:45:44;;;;;;;;;0.00;0.00;;;;;9.58;100.00;100101.53;6203624;22;49849;-67
2023/01/08 08:48:10;;;;;;;;;3.00;1.00;;;;;9.58;100.00;100102.44;6205150;22;49863;-67
2023/01/08 08:50:36;;;;;;;;;2.75;1.00;;;;;9.89;100.00;100163.13;6204764;22;50477;-68
2023/01/08 08:53:03;;;;;;;;;0.00;0.00;;;;;9.65;100.00;100098.13;6203397;22;49593;-70
2023/01/08 08:55:29;;;;;;;;;0.75;0.00;;;;;10.06;100.00;100176.47;6204359;22;49801;-70
2023/01/08 08:58:05;;;;;;;;;4.50;1.25;;;;;9.72;100.00;100103.47;6204158;22;49834;-70
2023/01/08 09:00:30;;;;;;;;;0.50;0.00;;;;;9.75;100.00;100119.28;6203518;22;50737;-70
2023/01/08 09:02:56;;;;;;;;;1.00;1.00;;;;;9.25;100.00;100015.47;6204937;22;49905;-67
2023/01/08 09:05:21;;;;;;;;;0.00;0.00;;;;;9.42;100.00;100042.78;6176666;22;49635;-70
2023/01/08 09:07:46;;;;;;;;;1.00;1.00;;;;;9.73;100.00;100100.00;6204428;22;49666;-71
2023/01/08 09:10:12;;;;;;;;;0.50;0.25;;;;;9.94;100.00;100125.66;6202886;22;49913;-70
2023/01/08 09:12:37;;;;;;;;;1.75;0.50;;;;;10.16;100.00;100167.88;6203145;22;49752;-67
2023/01/08 09:15:03;;;;;;;;;0.00;0.00;;;;;8.93;100.00;99945.22;6203669;22;49658;-68
2023/01/08 09:17:28;;;;;;;;;2.00;1.00;;;;;9.70;100.00;100076.38;6203629;22;49916;-68
2023/01/08 09:19:54;;;;;;;;;0.00;0.00;;;;;10.07;100.00;100146.78;6203310;22;58902;-72
2023/01/08 09:22:19;;;;;;;;;0.00;0.00;;;;;9.69;100.00;100063.25;6203446;22;49863;-70
2023/01/08 09:24:45;;;;;;;;;1.00;0.00;;;;;9.41;100.00;100022.69;6205212;22;50035;-71
2023/01/08 09:27:10;;;;;;;;;1.75;0.00;;;;;9.91;100.00;100090.63;6203865;22;49703;-70
2023/01/08 09:29:35;;;;;;;;;2.00;1.00;;;;;10.14;100.00;100127.63;6204117;22;50237;-70
2023/01/08 09:32:01;;;;;;;;;0.00;0.00;;;;;9.92;100.00;100100.25;6204361;22;49942;-74
2023/01/08 09:34:26;;;;;;;;;0.50;0.00;;;;;10.04;100.00;100114.41;6207509;22;49819;-72
2023/01/08 09:36:51;;;;;;;;;0.00;0.00;;;;;9.93;100.00;100084.53;6202405;22;50032;-69
2023/01/08 09:39:17;;;;;;;;;1.00;1.00;;;;;10.07;100.00;100105.69;6204407;22;50812;-71
2023/01/08 09:41:46;;;;;;;;;1.25;1.25;;;;;10.11;100.00;100104.84;6178240;22;49771;-74
2023/01/08 09:44:19;;;;;;;;;1.25;1.25;;;;;10.28;100.00;100140.06;6177760;22;49568;-71
2023/01/08 09:46:46;;;;;;;;;1.50;1.50;;;;;9.94;100.00;100062.72;6205042;22;49574;-70
2023/01/08 09:49:18;;;;;;;;;0.25;0.25;;;;;10.31;100.00;100123.47;6204271;22;49922;-72
2023/01/08 09:51:43;;;;;;;;;1.50;1.50;;;;;10.43;100.00;100125.41;6209952;22;49473;-70
2023/01/08 09:54:15;;;;;;;;;1.00;1.00;;;;;10.36;100.00;100115.69;6215100;22;49786;-79
2023/01/08 09:56:41;;;;;;;;;0.00;0.00;;;;;10.38;100.00;100112.22;6208596;22;49649;-84
2023/01/08 09:59:11;;;;;;;;;0.00;0.00;;;;;10.34;100.00;100099.06;6182003;22;51967;-75
2023/01/08 10:01:39;;;;;;;;;0.75;0.25;;;;;10.48;100.00;100127.19;6203029;22;50020;-70
2023/01/08 10:04:16;;;;;;;;;1.00;1.00;;;;;10.36;100.00;100105.19;6204645;22;49851;-71
2023/01/08 10:06:58;;;;;;;;;0.00;0.00;;;;;10.36;100.00;100108.69;6202265;22;49753;-70
2023/01/08 10:09:30;;;;;;;;;2.50;0.75;;;;;10.65;100.00;100131.75;6202032;22;51421;-72
2023/01/08 10:12:02;;;;;;;;;1.50;0.00;;;;;10.70;100.00;100127.41;6204263;22;49604;-71
2023/01/08 10:14:32;;;;;;;;;1.00;1.00;;;;;10.76;100.00;100133.59;6205409;22;49588;-69
2023/01/08 10:17:01;;;;;;;;;0.25;0.25;;;;;10.47;100.00;100086.06;6205130;22;49737;-71
2023/01/08 10:19:26;;;;;;;;;2.00;0.50;;;;;10.62;100.00;100103.72;6204427;22;50862;-72
2023/01/08 10:21:53;;;;;;;;;0.25;0.25;;;;;10.58;100.00;100092.31;6204508;22;56618;-70
2023/01/08 10:24:34;;;;;;;;;2.00;0.00;;;;;10.59;100.00;100066.94;6205852;22;49755;-71
2023/01/08 10:27:26;;;;;;;;;2.00;1.00;;;;;11.02;100.00;100135.63;6206372;22;49811;-72
2023/01/08 10:29:51;;;;;;;;;1.75;0.00;;;;;11.04;100.00;100140.00;6202097;22;49852;-73
2023/01/08 10:32:33;;;;;;;;;0.50;0.50;;;;;10.97;100.00;100125.06;6205410;22;49978;-64
2023/01/08 10:35:03;;;;;;;;;0.75;0.75;;;;;10.72;100.00;100073.19;6205555;22;49841;-74
2023/01/08 10:37:37;;;;;;;;;1.50;1.00;;;;;11.07;100.00;100123.38;6203881;22;49701;-67
2023/01/08 10:40:43;;;;;;;;;2.00;0.50;;;;;11.02;100.00;100109.34;6205393;22;49878;-76
2023/01/08 10:43:21;;;;;;;;;0.50;0.00;;;;;10.23;100.00;99980.88;6178237;22;49713;-77
2023/01/08 10:46:02;;;;;;;;;3.00;2.75;;;;;11.35;100.00;100119.22;6203541;22;49599;-64
2023/01/08 10:48:37;;;;;;;;;0.00;0.00;;;;;11.44;100.00;100112.28;6206042;22;49690;-64
2023/01/08 10:51:22;;;;;;;;;3.75;0.75;;;;;11.55;100.00;100106.22;6205216;22;51090;-64
2023/01/08 10:53:48;;;;;;;;;1.00;1.00;;;;;11.60;100.00;100104.53;6205459;22;49676;-64
2023/01/08 10:56:23;;;;;;;;;0.50;0.00;;;;;11.72;100.00;100100.19;6205459;22;49567;-72
2023/01/08 10:58:50;;;;;;;;;2.00;0.00;;;;;11.68;100.00;100072.16;6205872;22;49944;-69
2023/01/08 11:01:21;;;;;;;;;1.00;0.00;;;;;11.85;100.00;100089.78;6205392;22;49899;-67
2023/01/08 11:03:56;;;;;;;;;0.00;0.00;;;;;11.88;100.00;100095.06;6205509;22;49699;-68
2023/01/08 11:06:26;;;;;;;;;6.00;2.00;;;;;11.82;100.00;100069.59;6205469;22;49461;-69
2023/01/08 11:08:58;;;;;;;;;0.00;0.00;;;;;11.96;100.00;100085.44;6179123;22;49859;-76
2023/01/08 11:11:30;;;;;;;;;1.75;1.00;;;;;11.74;100.00;100037.97;6204502;22;50642;-70
2023/01/08 11:13:59;;;;;;;;;2.00;1.00;;;;;12.06;100.00;100068.81;6205729;22;49825;-63
2023/01/08 11:16:52;;;;;;;;;1.00;1.00;;;;;11.94;100.00;100053.88;6205927;22;49781;-63
2023/01/08 11:19:29;;;;;;;;;1.50;1.50;;;;;12.02;100.00;100046.91;6203184;22;49789;-63
2023/01/08 11:21:58;;;;;;;;;2.25;1.75;;;;;12.09;100.00;100046.94;6204415;22;49767;-68
2023/01/08 11:24:31;;;;;;;;;6.50;2.75;;;;;12.02;100.00;100032.88;6206053;22;49781;-63
2023/01/08 11:27:11;;;;;;;;;2.50;2.00;;;;;12.06;100.00;100050.41;6208992;22;49742;-67
2023/01/08 11:29:51;;;;;;;;;2.75;1.00;;;;;12.10;100.00;100038.16;6215620;22;49121;-64
2023/01/08 11:32:25;;;;;;;;;1.75;1.75;;;;;12.10;100.00;100036.41;6205624;22;50425;-65
2023/01/08 11:35:03;;;;;;;;;0.25;0.25;;;;;12.10;100.00;100025.00;6210957;22;49860;-64
2023/01/08 11:37:34;;;;;;;;;0.50;0.50;;;;;12.01;100.00;100007.44;6210353;22;49861;-70
2023/01/08 11:40:00;;;;;;;;;1.25;0.50;;;;;12.12;100.00;100015.34;6214558;22;49653;-84
2023/01/08 11:42:37;;;;;;;;;2.75;1.00;;;;;12.19;100.00;100009.25;6206314;22;50773;-78
2023/01/08 11:45:15;;;;;;;;;1.75;1.00;;;;;12.17;100.00;99996.09;6205723;22;49576;-64
2023/01/08 11:47:45;;;;;;;;;1.00;1.00;;;;;12.35;100.00;100007.50;6203649;22;49509;-66
2023/01/08 11:50:21;;;;;;;;;1.25;1.00;;;;;12.21;100.00;99966.25;6202274;22;49615;-64
2023/01/08 11:53:16;;;;;;;;;2.00;1.00;;;;;12.67;100.00;100002.28;6203950;22;50724;-64
2023/01/08 11:56:09;;;;;;;;;0.75;0.75;;;;;12.68;100.00;99954.00;6204896;22;49615;-64
2023/01/08 11:59:00;;;;;;;;;4.50;2.50;;;;;12.50;100.00;99892.56;6204536;22;49751;-64
2023/01/08 12:01:42;;;;;;;;;2.00;1.00;;;;;13.10;100.00;99958.31;6204668;22;49650;-64
2023/01/08 12:04:49;;;;;;;;;3.00;1.00;;;;;13.17;100.00;99957.44;6206145;22;52392;-74
2023/01/08 12:07:27;;;;;;;;;4.00;3.00;;;;;13.03;100.00;99949.56;6204264;22;49730;-66
2023/01/08 12:10:10;;;;;;;;;2.50;1.00;;;;;12.86;100.00;99917.09;6206125;22;49825;-66
2023/01/08 12:13:01;;;;;;;;;2.00;0.75;;;;;13.03;100.00;99946.94;6207540;22;49546;-67
2023/01/08 12:15:32;;;;;;;;;2.00;1.25;;;;;12.97;100.00;99936.41;6205753;22;50896;-66
2023/01/08 12:18:16;;;;;;;;;2.00;0.00;;;;;12.96;100.00;99939.91;6206271;22;49706;-66
2023/01/08 12:21:06;;;;;;;;;0.00;0.00;;;;;12.77;100.00;99896.06;6205260;22;49821;-65
2023/01/08 12:23:34;;;;;;;;;1.50;0.25;;;;;12.78;100.00;99895.16;6183901;22;49867;-65
2023/01/08 12:26:18;;;;;;;;;0.75;0.75;;;;;12.88;100.00;99903.03;6204939;22;49869;-65
2023/01/08 12:29:07;;;;;;;;;1.25;1.25;;;;;12.82;100.00;99889.88;6205357;22;49622;-65
2023/01/08 12:31:49;;;;;;;;;0.00;0.00;;;;;12.61;100.00;99845.16;6203339;22;49894;-65
2023/01/08 12:34:39;;;;;;;;;0.00;0.00;;;;;12.74;100.00;99867.97;6206499;22;49661;-66
2023/01/08 12:37:27;;;;;;;;;2.00;1.00;;;;;12.45;100.00;99828.53;6205200;22;50815;-69
2023/01/08 12:40:02;;;;;;;;;0.00;0.00;;;;;12.63;100.00;99867.09;6205312;22;49661;-69
2023/01/08 12:42:31;;;;;;;;;1.75;1.75;;;;;12.54;100.00;99859.22;6205818;22;49855;-68
2023/01/08 12:44:59;;;;;;;;;0.50;0.50;;;;;12.70;100.00;99863.56;6206624;22;49937;-76
2023/01/08 12:47:29;;;;;;;;;0.25;0.25;;;;;12.85;100.00;99878.47;6210000;22;49682;-73
2023/01/08 12:50:03;;;;;;;;;2.75;1.00;;;;;12.65;100.00;99817.09;6206136;22;49696;-68
2023/01/08 12:52:40;;;;;;;;;0.00;0.00;;;;;13.01;100.00;99874.91;6204975;22;49493;-67
2023/01/08 12:55:20;;;;;;;;;0.00;0.00;;;;;12.99;100.00;99855.59;6205766;22;49820;-71
2023/01/08 12:57:59;;;;;;;;;1.00;1.00;;;;;13.04;100.00;99860.88;6205345;22;49737;-68
2023/01/08 13:00:40;;;;;;;;;1.00;0.25;;;;;12.82;100.00;99828.44;6205899;22;49802;-66
2023/01/08 13:03:16;;;;;;;;;1.00;1.00;;;;;12.99;100.00;99834.53;6205602;22;50004;-67
2023/01/08 13:05:42;;;;;;;;;0.75;0.75;;;;;12.93;100.00;99804.69;6204841;22;49750;-71
2023/01/08 13:08:28;;;;;;;;;1.25;1.25;;;;;13.10;100.00;99827.44;6205309;22;49785;-66
2023/01/08 13:10:54;;;;;;;;;2.75;1.00;;;;;13.20;100.00;99836.22;6205453;22;49619;-71
2023/01/08 13:13:32;;;;;;;;;1.25;1.25;;;;;13.06;100.00;99778.28;6205028;22;49795;-73
2023/01/08 13:16:06;;;;;;;;;2.00;1.00;;;;;13.22;100.00;99796.66;6205641;22;49727;-78
2023/01/08 13:18:32;;;;;;;;;4.00;2.00;;;;;13.32;100.00;99816.84;6205585;22;49839;-71
2023/01/08 13:21:01;;;;;;;;;2.00;2.00;;;;;13.17;100.00;99781.75;6202616;22;49702;-72
2023/01/08 13:23:29;;;;;;;;;2.00;1.00;;;;;13.39;100.00;99795.69;6205366;22;49874;-70
2023/01/08 13:25:59;;;;;;;;;2.00;0.50;;;;;13.36;100.00;99771.13;6205708;22;49750;-70
2023/01/08 13:28:27;;;;;;;;;1.00;1.00;;;;;13.49;100.00;99771.91;6205076;22;50702;-71
2023/01/08 13:30:56;;;;;;;;;1.00;1.00;;;;;13.53;100.00;99771.03;6204843;22;49847;-73
2023/01/08 13:33:43;;;;;;;;;0.25;0.25;;;;;13.62;100.00;99781.50;6178450;22;49591;-72
2023/01/08 13:36:27;;;;;;;;;2.00;2.00;;;;;13.57;100.00;99773.63;6207554;22;50069;-71
2023/01/08 13:39:11;;;;;;;;;2.25;1.25;;;;;13.60;100.00;99762.16;6179779;22;52592;-71
2023/01/08 13:41:57;;;;;;;;;1.00;1.00;;;;;13.58;100.00;99749.00;6182634;22;49703;-72
2023/01/08 13:44:27;;;;;;;;;1.00;0.00;;;;;13.44;100.00;99738.56;6216521;22;49304;-71
2023/01/08 13:46:59;;;;;;;;;1.75;1.75;;;;;13.36;100.00;99740.38;6216218;22;49198;-74
2023/01/08 13:49:45;;;;;;;;;1.50;1.00;;;;;13.14;100.00;99699.19;6217205;22;49663;-72
2023/01/08 13:52:29;;;;;;;;;1.00;1.00;;;;;13.57;100.00;99749.00;6216734;22;49403;-74
2023/01/08 13:54:54;;;;;;;;;3.75;3.00;;;;;13.54;100.00;99736.72;6216899;22;49476;-73
2023/01/08 13:57:21;;;;;;;;;1.00;1.00;;;;;13.38;100.00;99712.22;6217216;22;49209;-74
2023/01/08 13:59:57;;;;;;;;;1.00;1.00;;;;;13.50;100.00;99734.97;6216275;22;50439;-76
2023/01/08 14:02:33;;;;;;;;;2.75;2.25;;;;;13.56;100.00;99753.41;6187854;22;49364;-81
2023/01/08 14:05:01;;;;;;;;;5.75;3.75;;;;;13.57;100.00;99736.69;6217361;22;49275;-75
2023/01/08 14:07:27;;;;;;;;;2.25;2.00;;;;;13.27;100.00;99692.97;6217084;22;49318;-73
2023/01/08 14:09:52;;;;;;;;;1.00;1.00;;;;;13.45;100.00;99706.03;6216915;22;50111;-78
2023/01/08 14:12:21;;;;;;;;;0.00;0.00;;;;;13.48;100.00;99714.81;6217006;22;49200;-75
2023/01/08 14:14:51;;;;;;;;;0.50;0.00;;;;;13.39;100.00;99713.09;6190338;22;49377;-73
2023/01/08 14:17:19;;;;;;;;;0.00;0.00;;;;;13.37;100.00;99713.13;6216937;22;49337;-71
2023/01/08 14:19:45;;;;;;;;;0.00;0.00;;;;;13.28;100.00;99684.19;6215932;22;50344;-73
2023/01/08 14:22:34;;;;;;;;;1.00;1.00;;;;;13.33;100.00;99692.94;6216762;22;49649;-72
2023/01/08 14:25:05;;;;;;;;;1.00;0.00;;;;;13.10;100.00;99645.63;6209223;22;49251;-74
2023/01/08 14:27:31;;;;;;;;;1.50;0.00;;;;;13.44;100.00;99698.13;6190309;22;49964;-74
2023/01/08 14:29:57;;;;;;;;;0.00;0.00;;;;;13.30;100.00;99663.97;6186176;22;52190;-74
2023/01/08 14:32:28;;;;;;;;;1.00;0.00;;;;;13.12;100.00;99637.72;6211405;22;49729;-73
2023/01/08 14:34:55;;;;;;;;;0.00;0.00;;;;;12.91;100.00;99599.22;6181104;22;49830;-74
2023/01/08 14:37:20;;;;;;;;;2.25;1.00;;;;;13.26;100.00;99664.00;6216638;22;49258;-73
2023/01/08 14:39:52;;;;;;;;;1.00;1.00;;;;;12.61;100.00;99543.25;6184395;22;51237;-73
2023/01/08 14:42:42;;;;;;;;;0.00;0.00;;;;;13.48;100.00;99686.66;6216168;22;49676;-74
2023/01/08 14:45:25;;;;;;;;;1.75;1.00;;;;;13.48;100.00;99686.66;6215065;22;49653;-74
2023/01/08 14:47:55;;;;;;;;;0.00;0.00;;;;;13.08;100.00;99633.38;6216859;22;49322;-73
2023/01/08 14:50:29;;;;;;;;;0.00;0.00;;;;;12.96;100.00;99630.81;6188674;22;51739;-73
2023/01/08 14:53:04;;;;;;;;;0.00;0.00;;;;;12.82;100.00;99615.09;6212542;22;49642;-73
2023/01/08 14:55:31;;;;;;;;;2.00;2.00;;;;;13.23;100.00;99685.13;6183492;22;49620;-72
2023/01/08 14:57:57;;;;;;;;;0.25;0.00;;;;;12.47;100.00;99575.84;6205432;22;49865;-71
2023/01/08 15:00:27;;;;;;;;;1.00;1.00;;;;;12.49;100.00;99590.72;6212050;22;50994;-74
2023/01/08 15:02:54;;;;;;;;;3.00;1.00;;;;;12.56;100.00;99629.31;6213918;22;49691;-73
2023/01/08 15:05:27;;;;;;;;;0.25;0.25;;;;;11.13;100.00;99401.09;6213929;22;49256;-73
2023/01/08 15:08:21;;;;;;;;;1.25;1.00;;;;;12.87;100.00;99661.59;6212102;22;49972;-72
2023/01/08 15:10:57;;;;;;;;;2.00;1.00;;;;;12.87;100.00;99661.59;6213401;22;50480;-73
2023/01/08 15:13:28;;;;;;;;;1.00;1.00;;;;;12.96;100.00;99686.16;6209286;22;49861;-73
2023/01/08 15:15:58;;;;;;;;;1.00;1.00;;;;;12.96;100.00;99678.25;6212245;22;49668;-73
2023/01/08 15:18:24;;;;;;;;;3.50;2.00;;;;;12.50;100.00;99607.41;6218798;22;49436;-73
2023/01/08 15:20:50;;;;;;;;;5.00;4.00;;;;;12.77;100.00;99653.78;6187829;22;51696;-73
2023/01/08 15:23:34;;;;;;;;;1.00;1.00;;;;;12.87;100.00;99666.88;6203068;22;49709;-73
2023/01/08 15:25:59;;;;;;;;;1.00;1.00;;;;;12.68;100.00;99646.78;6206607;22;49707;-72
2023/01/08 15:28:25;;;;;;;;;1.25;1.25;;;;;12.37;100.00;99596.06;6229993;22;49732;-72
2023/01/08 15:30:51;;;;;;;;;3.50;2.50;;;;;12.11;100.00;99558.47;6207040;22;49740;-72
2023/01/08 15:33:20;;;;;;;;;2.00;2.00;;;;;11.94;100.00;99554.16;6205238;22;49930;-72
2023/01/08 15:35:46;;;;;;;;;1.75;1.75;;;;;12.20;100.00;99597.91;6204669;22;49865;-72
2023/01/08 15:38:12;;;;;;;;;1.25;1.00;;;;;12.41;100.00;99644.28;6203548;22;49880;-71
2023/01/08 15:40:37;;;;;;;;;1.75;1.75;;;;;12.03;100.00;99597.97;6207384;22;49843;-72
2023/01/08 15:43:09;;;;;;;;;5.00;1.00;;;;;12.11;100.00;99582.16;6205572;22;49720;-73
2023/01/08 15:45:36;;;;;;;;;2.25;2.25;;;;;12.57;100.00;99645.97;6203738;22;49812;-72
2023/01/08 15:48:01;;;;;;;;;2.00;2.00;;;;;11.95;100.00;99541.88;6205493;22;49781;-72
2023/01/08 15:50:28;;;;;;;;;7.75;5.75;;;;;12.24;100.00;99594.34;6205895;22;50871;-73
2023/01/08 15:53:00;;;;;;;;;3.00;2.00;;;;;11.36;100.00;99472.81;6206100;22;49684;-85
2023/01/08 15:55:25;;;;;;;;;2.00;2.00;;;;;11.72;100.00;99515.66;6203766;22;50032;-74
2023/01/08 15:57:51;;;;;;;;;1.50;1.00;;;;;12.43;100.00;99610.94;6206124;22;49711;-73
2023/01/08 16:00:18;;;;;;;;;0.75;0.75;;;;;12.16;100.00;99568.09;6203795;22;52329;-72
2023/01/08 16:02:47;;;;;;;;;2.00;2.00;;;;;11.82;100.00;99501.63;6203666;22;49610;-75
2023/01/08 16:05:12;;;;;;;;;0.00;0.00;;;;;12.14;100.00;99564.59;6205986;22;49953;-71
2023/01/08 16:07:38;;;;;;;;;2.00;1.00;;;;;12.10;100.00;99544.44;6205320;22;49948;-71
2023/01/08 16:10:04;;;;;;;;;2.00;2.00;;;;;12.41;100.00;99605.69;6203115;22;51518;-69
2023/01/08 16:12:32;;;;;;;;;0.00;0.00;;;;;12.15;100.00;99575.97;6204992;22;49714;-69
2023/01/08 16:14:57;;;;;;;;;0.25;0.00;;;;;11.91;100.00;99535.75;6204245;22;49790;-67
2023/01/08 16:17:23;;;;;;;;;1.00;0.25;;;;;12.17;100.00;99584.75;6203488;22;49879;-69
2023/01/08 16:19:48;;;;;;;;;1.75;1.75;;;;;11.56;100.00;99479.78;6204514;22;51083;-69
2023/01/08 16:22:13;;;;;;;;;2.00;2.00;;;;;11.29;100.00;99438.69;6202874;22;49746;-67
2023/01/08 16:24:39;;;;;;;;;2.75;1.00;;;;;12.25;100.00;99585.56;6203854;22;49594;-66
2023/01/08 16:27:05;;;;;;;;;1.75;1.00;;;;;12.01;100.00;99560.28;6205786;22;49882;-72
2023/01/08 16:29:31;;;;;;;;;3.50;2.25;;;;;11.49;100.00;99471.06;6228717;22;52339;-68
2023/01/08 16:31:56;;;;;;;;;2.75;2.75;;;;;11.96;100.00;99556.78;6205361;22;49609;-67
2023/01/08 16:34:23;;;;;;;;;3.50;2.50;;;;;11.94;100.00;99569.94;6205723;22;49648;-68
2023/01/08 16:36:48;;;;;;;;;1.25;1.25;;;;;11.78;100.00;99525.28;6203968;22;49670;-67
2023/01/08 16:39:13;;;;;;;;;2.50;1.25;;;;;11.80;100.00;99510.41;6204475;22;50242;-69
2023/01/08 16:41:39;;;;;;;;;1.75;1.75;;;;;11.99;100.00;99539.25;6205601;22;49839;-70
2023/01/08 16:44:04;;;;;;;;;2.75;1.00;;;;;10.55;100.00;99327.75;6204850;22;49745;-69
2023/01/08 16:46:30;;;;;;;;;2.00;2.00;;;;;11.88;100.00;99520.00;6205732;22;49522;-70
2023/01/08 16:48:56;;;;;;;;;1.00;1.00;;;;;10.29;100.00;99247.34;6204876;22;49870;-69
2023/01/08 16:51:24;;;;;;;;;2.00;2.00;;;;;12.12;100.00;99558.47;6204975;22;49744;-70
2023/01/08 16:53:49;;;;;;;;;3.00;3.00;;;;;12.12;100.00;99570.75;6211920;22;49654;-69
2023/01/08 16:56:14;;;;;;;;;2.50;2.00;;;;;11.19;100.00;99416.81;6211757;22;49428;-70
2023/01/08 16:58:40;;;;;;;;;2.00;2.00;;;;;10.58;100.00;99306.75;6204969;22;57445;-69
2023/01/08 17:01:09;;;;;;;;;4.25;2.25;;;;;11.67;100.00;99459.56;6205382;22;49512;-69
2023/01/08 17:03:35;;;;;;;;;7.50;2.25;;;;;11.76;100.00;99481.44;6206016;22;49975;-70
2023/01/08 17:06:09;;;;;;;;;3.00;1.50;;;;;11.85;100.00;99490.19;6206520;22;49782;-71
2023/01/08 17:08:44;;;;;;;;;2.00;1.75;;;;;12.04;100.00;99524.28;6206476;22;49710;-71
2023/01/08 17:11:12;;;;;;;;;2.00;2.00;;;;;11.81;100.00;99484.09;6205284;22;49870;-73
2023/01/08 17:13:37;;;;;;;;;1.00;1.00;;;;;11.80;100.00;99502.50;6204862;22;49709;-73
2023/01/08 17:16:05;;;;;;;;;2.00;2.00;;;;;11.77;100.00;99477.06;6205353;22;50173;-70
2023/01/08 17:18:31;;;;;;;;;2.00;2.00;;;;;10.78;100.00;99364.44;6202887;22;51570;-72
2023/01/08 17:20:56;;;;;;;;;2.50;2.00;;;;;11.53;100.00;99492.94;6203911;22;49507;-72
2023/01/08 17:23:27;;;;;;;;;2.25;1.00;;;;;11.73;100.00;99493.72;6203656;22;49560;-74
2023/01/08 17:25:54;;;;;;;;;0.50;0.50;;;;;11.00;100.00;99360.91;6205080;22;49792;-72
2023/01/08 17:28:23;;;;;;;;;3.25;1.50;;;;;11.77;100.00;99492.81;6205292;22;49766;-71
2023/01/08 17:30:49;;;;;;;;;1.75;1.75;;;;;11.13;100.00;99387.97;6204169;22;49726;-74
2023/01/08 17:33:14;;;;;;;;;1.50;1.00;;;;;11.70;100.00;99488.50;6202688;22;49610;-70
2023/01/08 17:35:40;;;;;;;;;4.00;4.00;;;;;11.76;100.00;99501.59;6203089;22;49809;-70
2023/01/08 17:38:05;;;;;;;;;1.75;1.75;;;;;11.82;100.00;99506.00;6205470;22;50286;-70
2023/01/08 17:40:30;;;;;;;;;1.75;1.75;;;;;11.82;100.00;99512.13;6204072;22;60843;-70
2023/01/08 17:42:56;;;;;;;;;1.50;1.50;;;;;11.63;100.00;99479.75;6204877;22;50017;-70
2023/01/08 17:45:21;;;;;;;;;2.25;1.00;;;;;11.84;100.00;99523.50;6205342;22;49594;-71
2023/01/08 17:47:46;;;;;;;;;1.00;1.00;;;;;11.32;100.00;99434.31;6204143;22;49691;-70
2023/01/08 17:50:12;;;;;;;;;1.50;1.50;;;;;11.85;100.00;99532.28;6204237;22;49795;-70
2023/01/08 17:52:37;;;;;;;;;3.75;2.00;;;;;11.59;100.00;99475.41;6202536;22;49650;-71
2023/01/08 17:55:03;;;;;;;;;3.00;3.00;;;;;11.69;100.00;99503.41;6205417;22;49937;-69
2023/01/08 17:57:30;;;;;;;;;1.75;1.75;;;;;11.59;100.00;99483.28;6204782;22;50427;-74
2023/01/08 17:59:56;;;;;;;;;0.25;0.25;;;;;11.46;100.00;99461.41;6200960;22;49575;-70
2023/01/08 18:02:21;;;;;;;;;1.50;1.50;;;;;11.71;100.00;99508.66;6206304;22;49524;-81
2023/01/08 18:04:47;;;;;;;;;1.25;1.25;;;;;11.34;100.00;99456.19;6206226;22;49626;-72
2023/01/08 18:07:13;;;;;;;;;1.50;1.50;;;;;11.49;100.00;99494.72;6204214;22;50307;-73
2023/01/08 18:09:39;;;;;;;;;3.00;3.00;;;;;11.62;100.00;99511.31;6204155;22;49642;-67